To NAV CANADA Home Page Login to a new session Search on AWWS site Feedback and Comments Disclaimer Vers la page française équivalente Tips FAQ What's new on the site To the Forecasts and Observations / NOTAM section To "File a Flight Plan" website Publications and other links Update of the User's profile FIC Telephone Numbers My Weather Data Folder Route Weather Data Regional Weather Data Local Weather Data To the Forecasts and Observations / NOTAM section
Request Generated 02/27/2017 at 09:27:17 UTC . Weather information available at that time is displayed.

METAR/TAF

TORONTO/BILLY BISHOP TORONTO CITY AIRPORT/ON    (show WxCam)

METAR CYTZ 270900Z AUTO 24015G20KT 9SM BKN075 BKN100 04/M02 A3007 RMK
SLP186=
METAR CYTZ 270800Z AUTO 23015KT 9SM BKN080 BKN092 04/M03 A3006 RMK
SLP183=
METAR CYTZ 270700Z AUTO 23015G20KT 9SM CLR 04/M02 A3004 RMK SLP178=

TAF CYTZ 270742Z 2708/2808 23015G25KT P6SM FEW060
FM271200 25010G20KT P6SM SCT020
BECMG 2714/2716 22012KT
FM271900 22012KT P6SM BKN040
BECMG 2800/2802 19005KT
RMK FCST BASED ON AUTO OBS. NXT FCST BY 271400Z=
Your time UTC time
Weather data provided by Environment Canada and NAV CANADA